DAOB/TID METAR and TAF weather

Enter ICAO airport designator
Station Type Date Time Source
DAOB METAR 2018/04/19 13:00 UTC NOAA

DAOB 191300Z 03003KT 9999 SCT023 FEW026TCU 20/11 Q1021


Station Type Date Time Source
DAOB Decoded METAR 2018/04/19 13:00 UTC NOAA

Tiaret, Algeria (DAOB) 35-15N 001-26E 1127M
Apr 19, 2018 - 09:00 AM EDT / 2018.04.19 1300 UTC
Wind: from the NNE (030 degrees) at 3 MPH (3 KT):0
Visibility: greater than 7 mile(s):0
Sky conditions: partly cloudy
Weather: Towering cumulus clouds observed
Temperature: 68 F (20 C)
Dew Point: 51 F (11 C)
Relative Humidity: 56%
Pressure (altimeter): 30.15 in. Hg (1021 hPa)
ob: DAOB 191300Z 03003KT 9999 SCT023 FEW026TCU 20/11 Q1021
cycle: 13

Station Type Date Time Source
DAOB TAF 2018/04/19 12:33 UTC NOAA

TAF DAOB 191100Z 1912/2012 VRB02KT 9999 FEW023
BECMG 1913/1916 36012KT
BECMG 1918/1921 10010KT PROB30
TEMPO 2002/2007 4000 BR BKN015
BECMG 2004/2007 20014KT PROB30
TEMPO 2008/2011 22015G25KT 5000 DRSA


Example: see airport list